createdAt,value
2023-02-19T00:00:35.624Z,100795.91
2023-02-19T00:03:02.127Z,100800.22
2023-02-19T00:05:28.700Z,100795.91
2023-02-19T00:07:55.284Z,100793.06
2023-02-19T00:10:21.666Z,100789.91
2023-02-19T00:12:48.321Z,100777.28
2023-02-19T00:15:15.050Z,100788.50
2023-02-19T00:17:41.758Z,100798.69
2023-02-19T00:20:08.126Z,100798.91
2023-02-19T00:22:34.625Z,100793.16
2023-02-19T00:25:00.947Z,100791.63
2023-02-19T00:27:27.625Z,100784.84
2023-02-19T00:29:54.020Z,100787.31
2023-02-19T00:32:20.774Z,100783.22
2023-02-19T00:34:47.201Z,100779.94
2023-02-19T00:37:13.593Z,100781.59
2023-02-19T00:39:40.556Z,100779.94
2023-02-19T00:42:06.965Z,100783.44
2023-02-19T00:44:33.311Z,100773.38
2023-02-19T00:46:59.625Z,100770.81
2023-02-19T00:49:26.111Z,100763.06
2023-02-19T00:51:52.712Z,100763.91
2023-02-19T00:54:19.115Z,100769.28
2023-02-19T00:56:45.484Z,100759.81
2023-02-19T00:59:12.416Z,100777.03
2023-02-19T01:01:38.701Z,100771.66
2023-02-19T01:04:06.676Z,100773.97
2023-02-19T01:06:33.285Z,100768.09
2023-02-19T01:08:59.657Z,100756.88
2023-02-19T01:11:26.220Z,100762.63
2023-02-19T01:13:52.572Z,100757.47
2023-02-19T01:16:18.953Z,100756.06
2023-02-19T01:18:45.428Z,100754.66
2023-02-19T01:21:12.051Z,100752.78
2023-02-19T01:23:38.514Z,100743.91
2023-02-19T01:26:05.072Z,100744.44
2023-02-19T01:28:31.438Z,100733.16
2023-02-19T01:30:57.842Z,100739.09
2023-02-19T01:33:24.284Z,100730.88
2023-02-19T01:35:50.681Z,100724.91
2023-02-19T01:38:17.178Z,100727.34
2023-02-19T01:40:43.545Z,100716.38
2023-02-19T01:43:09.940Z,100709.75
2023-02-19T01:45:36.610Z,100699.09
2023-02-19T01:48:03.474Z,100692.00
2023-02-19T01:50:30.274Z,100694.13
2023-02-19T01:52:56.694Z,100692.69
2023-02-19T01:55:23.271Z,100674.69
2023-02-19T01:57:49.606Z,100676.19
2023-02-19T02:00:16.116Z,100660.03
2023-02-19T02:02:42.822Z,100650.91
2023-02-19T02:05:11.217Z,100656.75
2023-02-19T02:07:41.482Z,100647.69
2023-02-19T02:10:08.468Z,100653.91
2023-02-19T02:12:36.691Z,100653.28
2023-02-19T02:15:03.054Z,100656.44
2023-02-19T02:17:30.044Z,100672.81
2023-02-19T02:19:56.538Z,100671.16
2023-02-19T02:22:22.937Z,100675.72
2023-02-19T02:24:49.940Z,100671.38
2023-02-19T02:27:16.855Z,100668.69
2023-02-19T02:29:43.472Z,100665.41
2023-02-19T02:32:09.887Z,100660.16
2023-02-19T02:34:36.213Z,100660.03
2023-02-19T02:37:02.980Z,100656.53
2023-02-19T02:39:29.495Z,100644.16
2023-02-19T02:41:55.958Z,100648.94
2023-02-19T02:44:22.355Z,100638.44
2023-02-19T02:46:48.994Z,100643.78
2023-02-19T02:49:15.568Z,100639.00
2023-02-19T02:51:42.008Z,100635.97
2023-02-19T02:54:08.710Z,100623.16
2023-02-19T02:56:35.482Z,100623.09
2023-02-19T02:59:01.835Z,100632.81
2023-02-19T03:01:28.561Z,100630.59
2023-02-19T03:03:56.445Z,100634.56
2023-02-19T03:06:22.879Z,100635.34
2023-02-19T03:08:49.413Z,100634.56
2023-02-19T03:11:15.766Z,100629.97
2023-02-19T03:13:42.153Z,100624.47
2023-02-19T03:16:08.581Z,100628.81
2023-02-19T03:18:35.664Z,100619.72
2023-02-19T03:21:02.655Z,100612.09
2023-02-19T03:23:29.675Z,100622.03
2023-02-19T03:25:56.105Z,100621.22
2023-02-19T03:28:22.511Z,100627.38
2023-02-19T03:30:48.930Z,100630.91
2023-02-19T03:33:15.325Z,100621.22
2023-02-19T03:35:42.000Z,100624.13
2023-02-19T03:38:08.638Z,100623.31
2023-02-19T03:40:35.396Z,100625.19
2023-02-19T03:43:01.751Z,100624.56
2023-02-19T03:45:28.187Z,100629.38
2023-02-19T03:47:55.023Z,100621.09
2023-02-19T03:50:21.509Z,100625.41
2023-02-19T03:52:47.963Z,100619.22
2023-02-19T03:55:14.330Z,100617.00
2023-02-19T03:57:40.720Z,100615.34
2023-02-19T04:00:07.027Z,100617.00
2023-02-19T04:02:33.467Z,100615.56
2023-02-19T04:05:00.392Z,100619.31
2023-02-19T04:07:28.825Z,100616.41
2023-02-19T04:09:55.793Z,100629.81
2023-02-19T04:12:23.761Z,100623.28
2023-02-19T04:14:50.653Z,100624.91
2023-02-19T04:17:17.125Z,100625.94
2023-02-19T04:19:43.474Z,100629.69
2023-02-19T04:22:09.924Z,100635.88
2023-02-19T04:24:36.383Z,100636.13
2023-02-19T04:27:02.973Z,100647.88
2023-02-19T04:29:29.353Z,100643.00
2023-02-19T04:31:55.733Z,100646.47
2023-02-19T04:34:22.383Z,100648.81
2023-02-19T04:36:49.036Z,100654.41
2023-02-19T04:39:15.581Z,100669.69
2023-02-19T04:41:41.932Z,100657.31
2023-02-19T04:44:08.286Z,100673.91
2023-02-19T04:46:34.747Z,100677.03
2023-02-19T04:49:01.305Z,100683.41
2023-02-19T04:51:27.670Z,100683.84
2023-02-19T04:53:54.192Z,100689.22
2023-02-19T04:56:20.549Z,100689.22
2023-02-19T04:58:47.009Z,100690.84
2023-02-19T05:01:13.752Z,100695.44
2023-02-19T05:03:40.240Z,100700.78
2023-02-19T05:06:07.004Z,100687.13
2023-02-19T05:08:33.361Z,100694.38
2023-02-19T05:10:59.688Z,100694.59
2023-02-19T05:13:26.106Z,100702.03
2023-02-19T05:15:52.743Z,100707.41
2023-02-19T05:18:19.696Z,100705.78
2023-02-19T05:20:46.063Z,100718.97
2023-02-19T05:23:12.459Z,100720.84
2023-02-19T05:25:38.848Z,100716.72
2023-02-19T05:28:05.465Z,100715.94
2023-02-19T05:30:32.178Z,100713.25
2023-02-19T05:32:58.761Z,100714.88
2023-02-19T05:35:25.133Z,100712.41
2023-02-19T05:37:51.598Z,100719.06
2023-02-19T05:40:18.021Z,100719.06
2023-02-19T05:42:44.742Z,100720.09
2023-02-19T05:45:11.902Z,100730.38
2023-02-19T05:47:38.605Z,100731.66
2023-02-19T05:50:05.112Z,100729.44
2023-02-19T05:52:31.465Z,100732.13
2023-02-19T05:54:58.148Z,100726.53
2023-02-19T05:57:24.587Z,100731.91
2023-02-19T05:59:50.979Z,100739.13
2023-02-19T06:02:17.439Z,100736.44
2023-02-19T06:04:43.845Z,100746.56
2023-02-19T06:07:10.159Z,100740.16
2023-02-19T06:09:36.478Z,100746.56
2023-02-19T06:12:02.924Z,100744.91
2023-02-19T06:14:29.365Z,100754.25
2023-02-19T06:16:55.669Z,100757.97
2023-02-19T06:19:22.023Z,100756.34
2023-02-19T06:21:48.570Z,100759.03
2023-02-19T06:24:15.068Z,100758.41
2023-02-19T06:26:42.116Z,100763.78
2023-02-19T06:29:08.864Z,100764.84
2023-02-19T06:31:35.374Z,100771.25
2023-02-19T06:34:01.906Z,100777.41
2023-02-19T06:36:28.351Z,100775.78
2023-02-19T06:38:54.829Z,100780.31
2023-02-19T06:41:21.159Z,100788.38
2023-02-19T06:43:47.770Z,100780.78
2023-02-19T06:46:14.249Z,100784.88
2023-02-19T06:48:40.662Z,100783.47
2023-02-19T06:51:07.038Z,100789.41
2023-02-19T06:53:33.327Z,100785.94
2023-02-19T06:55:59.698Z,100792.31
2023-02-19T06:58:26.465Z,100796.88
2023-02-19T07:00:52.807Z,100795.25
2023-02-19T07:03:19.375Z,100800.63
2023-02-19T07:05:45.686Z,100793.59
2023-02-19T07:08:12.105Z,100803.53
2023-02-19T07:10:38.934Z,100800.44
2023-02-19T07:13:05.531Z,100808.50
2023-02-19T07:15:31.885Z,100814.06
2023-02-19T07:17:58.482Z,100818.63
2023-02-19T07:20:24.925Z,100821.31
2023-02-19T07:22:51.280Z,100824.22
2023-02-19T07:25:17.602Z,100839.47
2023-02-19T07:27:44.189Z,100851.06
2023-02-19T07:30:11.166Z,100856.63
2023-02-19T07:32:37.490Z,100867.38
2023-02-19T07:35:04.239Z,100870.06
2023-02-19T07:37:30.607Z,100861.78
2023-02-19T07:39:57.019Z,100876.47
2023-02-19T07:42:23.773Z,100887.19
2023-02-19T07:44:50.193Z,100891.53
2023-02-19T07:47:16.543Z,100895.25
2023-02-19T07:49:43.342Z,100892.78
2023-02-19T07:52:09.686Z,100891.34
2023-02-19T07:54:36.220Z,100891.94
2023-02-19T07:57:03.240Z,100903.94
2023-02-19T07:59:29.578Z,100908.50
2023-02-19T08:01:55.916Z,100914.66
2023-02-19T08:04:22.316Z,100907.28
2023-02-19T08:06:48.977Z,100918.41
2023-02-19T08:09:15.498Z,100915.13
2023-02-19T08:11:41.862Z,100919.44
2023-02-19T08:14:08.186Z,100926.66
2023-02-19T08:16:42.935Z,100929.56
2023-02-19T08:19:09.926Z,100928.91
2023-02-19T08:21:36.501Z,100936.34
2023-02-19T08:24:02.998Z,100929.34
2023-02-19T08:26:29.354Z,100943.81
2023-02-19T08:28:55.725Z,100952.91
2023-02-19T08:31:22.177Z,100961.75
2023-02-19T08:33:48.723Z,100968.78
2023-02-19T08:36:15.347Z,100971.69
2023-02-19T08:38:41.673Z,100975.63
2023-02-19T08:41:08.454Z,100989.84
2023-02-19T08:43:35.091Z,100990.69
2023-02-19T08:46:01.769Z,100998.72
2023-02-19T08:48:28.392Z,101003.25
2023-02-19T08:50:54.993Z,101009.66
2023-02-19T08:53:21.345Z,101003.47
2023-02-19T08:55:47.679Z,101006.38
2023-02-19T08:58:14.639Z,101017.31
2023-02-19T09:00:41.242Z,101024.13
2023-02-19T09:03:07.912Z,101024.94
2023-02-19T09:05:34.340Z,101036.50
2023-02-19T09:08:00.694Z,101036.69
2023-02-19T09:10:27.104Z,101035.91
2023-02-19T09:12:53.443Z,101042.28
2023-02-19T09:15:19.819Z,101043.53
2023-02-19T09:17:46.208Z,101051.78
2023-02-19T09:20:12.778Z,101057.38
2023-02-19T09:22:39.110Z,101060.06
2023-02-19T09:25:05.619Z,101059.03
2023-02-19T09:27:32.009Z,101062.75
2023-02-19T09:29:58.582Z,101055.94
2023-02-19T09:32:25.369Z,101065.03
2023-02-19T09:34:51.734Z,101071.44
2023-02-19T09:37:18.250Z,101081.56
2023-02-19T09:39:44.803Z,101083.19
2023-02-19T09:42:11.101Z,101084.25
2023-02-19T09:44:37.516Z,101089.38
2023-02-19T09:47:03.838Z,101096.63
2023-02-19T09:49:30.131Z,101086.09
2023-02-19T09:51:56.739Z,101097.66
2023-02-19T09:54:23.448Z,101088.97
2023-02-19T09:56:49.875Z,101096.19
2023-02-19T09:59:16.317Z,101108.38
2023-02-19T10:01:42.656Z,101101.34
2023-02-19T10:04:09.693Z,101112.91
2023-02-19T10:06:36.120Z,101116.63
2023-02-19T10:09:02.578Z,101119.53
2023-02-19T10:11:28.903Z,101121.16
2023-02-19T10:13:55.229Z,101129.22
2023-02-19T10:16:21.581Z,101132.94
2023-02-19T10:18:47.918Z,101135.63
2023-02-19T10:21:14.225Z,101129.63
2023-02-19T10:23:40.809Z,101136.66
2023-02-19T10:26:07.441Z,101139.53
2023-02-19T10:28:33.986Z,101141.38
2023-02-19T10:31:00.346Z,101148.59
2023-02-19T10:33:26.714Z,101147.38
2023-02-19T10:35:53.258Z,101149.84
2023-02-19T10:38:19.587Z,101149.63
2023-02-19T10:40:45.933Z,101162.44
2023-02-19T10:43:12.418Z,101162.44
2023-02-19T10:45:38.720Z,101157.06
2023-02-19T10:48:05.258Z,101166.38
2023-02-19T10:50:32.227Z,101175.22
2023-02-19T10:52:58.640Z,101183.47
2023-02-19T10:55:25.098Z,101181.03
2023-02-19T10:57:51.426Z,101178.34
2023-02-19T11:00:17.784Z,101180.19
2023-02-19T11:02:44.158Z,101181.81
2023-02-19T11:05:11.007Z,101189.06
2023-02-19T11:07:37.395Z,101200.81
2023-02-19T11:10:04.178Z,101206.16
2023-02-19T11:12:30.502Z,101212.56
2023-02-19T11:14:56.912Z,101213.22
2023-02-19T11:17:23.415Z,101222.25
2023-02-19T11:19:49.889Z,101219.81
2023-02-19T11:22:16.210Z,101225.97
2023-02-19T11:24:42.503Z,101233.00
2023-02-19T11:27:08.904Z,101226.81
2023-02-19T11:29:35.309Z,101235.06
2023-02-19T11:32:01.971Z,101226.38
2023-02-19T11:34:28.402Z,101228.25
2023-02-19T11:36:54.918Z,101228.25
2023-02-19T11:39:21.248Z,101229.50
2023-02-19T11:41:47.833Z,101237.56
2023-02-19T11:44:14.224Z,101243.97
2023-02-19T11:46:40.689Z,101248.47
2023-02-19T11:49:07.451Z,101253.00
2023-02-19T11:51:33.921Z,101257.78
2023-02-19T11:54:00.869Z,101253.22
2023-02-19T11:56:27.387Z,101249.09
2023-02-19T11:58:54.259Z,101255.50
2023-02-19T12:01:21.005Z,101256.72
2023-02-19T12:03:47.782Z,101251.16
2023-02-19T12:06:14.099Z,101258.56
2023-02-19T12:08:40.461Z,101252.41
2023-02-19T12:11:07.152Z,101253.22
2023-02-19T12:13:33.448Z,101266.63
2023-02-19T12:15:59.874Z,101260.44
2023-02-19T12:18:26.549Z,101273.03
2023-02-19T12:20:53.250Z,101273.84
2023-02-19T12:23:19.851Z,101277.16
2023-02-19T12:25:46.576Z,101279.63
2023-02-19T12:28:12.925Z,101276.34
2023-02-19T12:30:39.969Z,101274.25
2023-02-19T12:33:06.441Z,101266.41
2023-02-19T12:35:33.042Z,101270.13
2023-02-19T12:37:59.503Z,101273.84
2023-02-19T12:40:25.915Z,101264.97
2023-02-19T12:42:52.305Z,101270.53
2023-02-19T12:45:18.787Z,101261.25
2023-02-19T12:47:45.154Z,101269.53
2023-02-19T12:50:11.793Z,101278.59
2023-02-19T12:52:38.140Z,101272.22
2023-02-19T12:55:04.795Z,101280.66
2023-02-19T12:57:31.124Z,101281.91
2023-02-19T12:59:57.498Z,101287.47
2023-02-19T13:02:24.146Z,101290.34
2023-02-19T13:04:50.527Z,101287.28
2023-02-19T13:07:16.933Z,101298.81
2023-02-19T13:09:43.508Z,101288.91
2023-02-19T13:12:09.809Z,101301.09
2023-02-19T13:14:36.158Z,101302.13
2023-02-19T13:17:02.516Z,101306.84
2023-02-19T13:19:28.960Z,101310.56
2023-02-19T13:21:55.282Z,101313.47
2023-02-19T13:24:21.951Z,101315.94
2023-02-19T13:26:48.317Z,101315.34
2023-02-19T13:29:14.587Z,101319.25
2023-02-19T13:31:41.256Z,101316.38
2023-02-19T13:34:07.609Z,101313.88
2023-02-19T13:36:34.132Z,101319.25
2023-02-19T13:39:00.467Z,101332.47
2023-02-19T13:41:26.749Z,101325.41
2023-02-19T13:43:53.163Z,101328.72
2023-02-19T13:46:19.710Z,101334.28
2023-02-19T13:48:46.098Z,101328.28
2023-02-19T13:51:12.884Z,101336.75
2023-02-19T13:53:39.519Z,101331.19
2023-02-19T13:56:06.194Z,101326.25
2023-02-19T13:58:32.763Z,101327.09
2023-02-19T14:00:59.300Z,101328.09
2023-02-19T14:03:25.789Z,101344.00
2023-02-19T14:05:52.502Z,101339.47
2023-02-19T14:08:18.887Z,101343.00
2023-02-19T14:10:45.224Z,101339.28
2023-02-19T14:13:12.157Z,101341.13
2023-02-19T14:15:38.671Z,101346.28
2023-02-19T14:18:05.156Z,101351.66
2023-02-19T14:20:31.797Z,101352.50
2023-02-19T14:22:58.336Z,101355.38
2023-02-19T14:25:24.664Z,101359.91
2023-02-19T14:27:51.434Z,101356.41
2023-02-19T14:30:17.830Z,101363.22
2023-02-19T14:32:47.415Z,101361.38
2023-02-19T14:35:17.298Z,101363.22
2023-02-19T14:37:43.678Z,101366.72
2023-02-19T14:40:10.325Z,101366.50
2023-02-19T14:42:36.710Z,101371.03
2023-02-19T14:45:03.185Z,101372.84
2023-02-19T14:47:29.530Z,101377.41
2023-02-19T14:49:55.973Z,101385.25
2023-02-19T14:52:22.313Z,101375.47
2023-02-19T14:54:48.663Z,101379.19
2023-02-19T14:57:15.415Z,101382.06
2023-02-19T14:59:41.817Z,101382.28
2023-02-19T15:02:08.257Z,101388.63
2023-02-19T15:04:35.832Z,101371.47
2023-02-19T15:07:02.316Z,101385.09
2023-02-19T15:09:29.442Z,101374.28
2023-02-19T15:11:55.844Z,101385.44
2023-02-19T15:14:22.210Z,101392.69
2023-02-19T15:16:49.586Z,101392.88
2023-02-19T15:19:16.258Z,101408.59
2023-02-19T15:21:42.679Z,101401.28
2023-02-19T15:24:09.140Z,101400.66
2023-02-19T15:26:36.033Z,101409.72
2023-02-19T15:29:02.638Z,101426.47
2023-02-19T15:31:29.218Z,101418.78
2023-02-19T15:33:56.211Z,101418.75
2023-02-19T15:36:22.555Z,101418.31
2023-02-19T15:38:49.004Z,101424.69
2023-02-19T15:41:15.490Z,101426.72
2023-02-19T15:43:41.845Z,101432.72
2023-02-19T15:46:08.648Z,101426.72
2023-02-19T15:48:34.986Z,101427.09
2023-02-19T15:51:01.478Z,101434.75
2023-02-19T15:53:27.870Z,101440.28
2023-02-19T15:55:54.281Z,101438.88
2023-02-19T15:58:21.288Z,101447.97
2023-02-19T16:00:47.633Z,101455.81
2023-02-19T16:03:14.026Z,101448.16
2023-02-19T16:05:40.802Z,101454.31
2023-02-19T16:08:07.165Z,101449.06
2023-02-19T16:10:33.505Z,101452.97
2023-02-19T16:12:59.966Z,101453.22
2023-02-19T16:15:26.436Z,101462.25
2023-02-19T16:17:52.834Z,101453.16
2023-02-19T16:20:19.599Z,101451.88
2023-02-19T16:22:46.050Z,101469.91
2023-02-19T16:25:13.244Z,101471.75
2023-02-19T16:27:39.707Z,101477.56
2023-02-19T16:30:06.212Z,101469.47
2023-02-19T16:32:32.670Z,101480.03
2023-02-19T16:34:59.189Z,101482.75
2023-02-19T16:37:25.610Z,101483.53
2023-02-19T16:39:51.913Z,101498.84
2023-02-19T16:42:18.698Z,101501.50
2023-02-19T16:44:45.616Z,101502.69
2023-02-19T16:47:12.189Z,101510.94
2023-02-19T16:49:38.746Z,101518.59
2023-02-19T16:52:05.370Z,101524.97
2023-02-19T16:54:31.831Z,101526.38
2023-02-19T16:56:58.267Z,101533.00
2023-02-19T16:59:25.025Z,101536.91
2023-02-19T17:01:51.475Z,101547.25
2023-02-19T17:04:18.256Z,101543.72
2023-02-19T17:06:44.662Z,101565.06
2023-02-19T17:09:11.212Z,101564.44
2023-02-19T17:11:37.883Z,101569.97
2023-02-19T17:14:04.286Z,101568.72
2023-02-19T17:16:30.619Z,101569.69
2023-02-19T17:18:57.159Z,101570.06
2023-02-19T17:21:23.570Z,101575.63
2023-02-19T17:23:49.899Z,101578.09
2023-02-19T17:26:16.230Z,101572.31
2023-02-19T17:28:42.533Z,101584.53
2023-02-19T17:31:09.027Z,101585.94
2023-02-19T17:33:35.450Z,101590.06
2023-02-19T17:36:01.795Z,101592.91
2023-02-19T17:38:28.109Z,101587.09
2023-02-19T17:40:54.489Z,101600.72
2023-02-19T17:43:21.249Z,101597.81
2023-02-19T17:45:47.746Z,101601.56
2023-02-19T17:48:14.101Z,101603.81
2023-02-19T17:50:40.621Z,101602.09
2023-02-19T17:53:07.423Z,101607.03
2023-02-19T17:55:33.953Z,101610.09
2023-02-19T17:58:00.572Z,101609.69
2023-02-19T18:00:26.866Z,101611.31
2023-02-19T18:02:53.210Z,101611.16
2023-02-19T18:05:19.829Z,101612.81
2023-02-19T18:07:46.392Z,101611.31
2023-02-19T18:10:12.746Z,101608.19
2023-02-19T18:12:39.561Z,101617.47
2023-02-19T18:15:05.926Z,101620.53
2023-02-19T18:17:32.411Z,101623.25
2023-02-19T18:19:58.856Z,101622.59
2023-02-19T18:22:25.143Z,101620.25
2023-02-19T18:24:51.568Z,101627.69
2023-02-19T18:27:18.151Z,101621.00
2023-02-19T18:29:44.878Z,101625.13
2023-02-19T18:32:11.278Z,101623.28
2023-02-19T18:34:38.215Z,101628.81
2023-02-19T18:37:04.544Z,101637.06
2023-02-19T18:39:30.884Z,101641.41
2023-02-19T18:41:57.208Z,101643.53
2023-02-19T18:44:24.127Z,101637.59
2023-02-19T18:46:50.588Z,101641.63
2023-02-19T18:49:16.986Z,101635.72
2023-02-19T18:51:43.541Z,101640.13
2023-02-19T18:54:10.024Z,101639.38
2023-02-19T18:56:36.892Z,101640.88
2023-02-19T18:59:03.369Z,101642.13
2023-02-19T19:01:29.760Z,101635.31
2023-02-19T19:03:56.673Z,101642.81
2023-02-19T19:06:23.075Z,101646.78
2023-02-19T19:08:49.662Z,101646.63
2023-02-19T19:11:16.028Z,101641.44
2023-02-19T19:13:42.383Z,101642.50
2023-02-19T19:16:09.643Z,101632.16
2023-02-19T19:18:36.515Z,101639.41
2023-02-19T19:21:03.075Z,101637.78
2023-02-19T19:23:29.413Z,101642.56
2023-02-19T19:25:55.836Z,101637.16
2023-02-19T19:28:22.314Z,101641.13
2023-02-19T19:30:49.402Z,101640.28
2023-02-19T19:33:17.749Z,101631.59
2023-02-19T19:35:44.882Z,101640.13
2023-02-19T19:38:12.331Z,101641.19
2023-02-19T19:40:40.228Z,101637.06
2023-02-19T19:43:07.950Z,101638.13
2023-02-19T19:45:34.424Z,101644.94
2023-02-19T19:48:00.805Z,101639.97
2023-02-19T19:50:27.893Z,101636.31
2023-02-19T19:52:55.169Z,101658.78
2023-02-19T19:55:21.871Z,101658.16
2023-02-19T19:57:48.271Z,101648.41
2023-02-19T20:00:14.578Z,101641.16
2023-02-19T20:02:41.235Z,101645.94
2023-02-19T20:05:07.652Z,101634.75
2023-02-19T20:07:34.007Z,101641.44
2023-02-19T20:10:00.416Z,101635.66
2023-02-19T20:12:27.375Z,101641.25
2023-02-19T20:14:54.288Z,101642.53
2023-02-19T20:17:20.917Z,101646.25
2023-02-19T20:19:47.277Z,101659.56
2023-02-19T20:22:13.854Z,101650.47
2023-02-19T20:24:40.237Z,101651.09
2023-02-19T20:27:06.991Z,101657.13
2023-02-19T20:29:33.608Z,101655.25
2023-02-19T20:32:00.490Z,101650.72
2023-02-19T20:34:26.904Z,101644.72
2023-02-19T20:36:53.521Z,101645.78
2023-02-19T20:39:20.100Z,101649.94
2023-02-19T20:41:46.612Z,101654.50
2023-02-19T20:44:13.100Z,101653.47
2023-02-19T20:46:39.939Z,101663.84
2023-02-19T20:49:06.675Z,101659.50
2023-02-19T20:51:33.329Z,101669.66
2023-02-19T20:53:59.821Z,101674.06
2023-02-19T20:56:26.246Z,101679.22
2023-02-19T20:58:53.282Z,101686.91
2023-02-19T21:01:19.787Z,101682.38
2023-02-19T21:03:46.185Z,101692.16
2023-02-19T21:06:12.882Z,101694.63
2023-02-19T21:08:39.885Z,101699.38
2023-02-19T21:11:06.566Z,101695.69
2023-02-19T21:13:33.061Z,101686.94
2023-02-19T21:15:59.456Z,101686.78
2023-02-19T21:18:26.334Z,101687.81
2023-02-19T21:20:53.058Z,101688.22
2023-02-19T21:23:19.542Z,101695.28
2023-02-19T21:25:45.847Z,101696.31
2023-02-19T21:28:12.158Z,101706.06
2023-02-19T21:30:38.549Z,101701.53
2023-02-19T21:33:05.017Z,101706.28
2023-02-19T21:35:31.641Z,101697.81
2023-02-19T21:37:58.036Z,101698.00
2023-02-19T21:40:24.508Z,101693.88
2023-02-19T21:42:51.074Z,101695.97
2023-02-19T21:45:17.417Z,101691.59
2023-02-19T21:47:43.742Z,101687.47
2023-02-19T21:50:10.156Z,101685.63
2023-02-19T21:52:36.541Z,101677.13
2023-02-19T21:55:02.808Z,101669.88
2023-02-19T21:57:29.287Z,101670.06
2023-02-19T21:59:55.853Z,101661.41
2023-02-19T22:02:22.280Z,101665.97
2023-02-19T22:04:49.093Z,101659.31
2023-02-19T22:07:15.436Z,101655.81
2023-02-19T22:09:42.232Z,101651.91
2023-02-19T22:12:08.559Z,101644.84
2023-02-19T22:14:35.043Z,101644.84
2023-02-19T22:17:01.751Z,101630.78
2023-02-19T22:19:28.442Z,101629.94
2023-02-19T22:21:54.789Z,101639.06
2023-02-19T22:24:21.154Z,101632.84
2023-02-19T22:26:47.518Z,101623.78
2023-02-19T22:29:13.983Z,101624.78
2023-02-19T22:31:40.374Z,101625.63
2023-02-19T22:34:07.294Z,101623.13
2023-02-19T22:36:34.127Z,101631.41
2023-02-19T22:39:00.561Z,101630.38
2023-02-19T22:41:27.279Z,101619.84
2023-02-19T22:43:53.695Z,101613.59
2023-02-19T22:46:20.080Z,101609.88
2023-02-19T22:48:46.727Z,101605.56
2023-02-19T22:51:13.163Z,101598.31
2023-02-19T22:53:39.592Z,101604.94
2023-02-19T22:56:05.960Z,101601.22
2023-02-19T22:58:32.308Z,101611.13
2023-02-19T23:00:58.837Z,101611.81
2023-02-19T23:03:25.795Z,101611.59
2023-02-19T23:05:52.150Z,101608.91
2023-02-19T23:08:18.894Z,101606.03
2023-02-19T23:10:45.295Z,101612.41
2023-02-19T23:13:11.804Z,101620.47
2023-02-19T23:15:38.172Z,101619.25
2023-02-19T23:18:04.788Z,101611.59
2023-02-19T23:20:31.126Z,101615.97
2023-02-19T23:22:57.584Z,101611.84
2023-02-19T23:25:23.938Z,101607.25
2023-02-19T23:27:50.244Z,101611.19
2023-02-19T23:30:16.736Z,101615.13
2023-02-19T23:32:43.369Z,101614.94
2023-02-19T23:35:09.695Z,101609.56
2023-02-19T23:37:36.123Z,101619.69
2023-02-19T23:40:02.805Z,101618.25
2023-02-19T23:42:29.208Z,101613.06
2023-02-19T23:44:55.533Z,101609.94
2023-02-19T23:47:21.929Z,101611.84
2023-02-19T23:49:48.339Z,101613.47
2023-02-19T23:52:15.266Z,101613.69
2023-02-19T23:54:41.752Z,101599.84
2023-02-19T23:57:08.679Z,101601.28
2023-02-19T23:59:35.038Z,101592.97
